createdAt,value
2019-06-01T00:01:40.414Z,14.07
2019-06-01T00:04:10.309Z,17.10
2019-06-01T00:06:40.752Z,19.47
2019-06-01T00:09:11.743Z,18.33
2019-06-01T00:11:41.596Z,18.77
2019-06-01T00:14:13.005Z,16.37
2019-06-01T00:16:44.167Z,17.97
2019-06-01T00:19:14.013Z,17.80
2019-06-01T00:21:43.784Z,22.10
2019-06-01T00:24:13.505Z,17.63
2019-06-01T00:26:43.703Z,20.53
2019-06-01T00:29:14.710Z,24.07
2019-06-01T00:31:45.292Z,17.57
2019-06-01T00:34:15.170Z,19.83
2019-06-01T00:36:45.628Z,13.10
2019-06-01T00:39:15.617Z,18.27
2019-06-01T00:41:45.951Z,14.10
2019-06-01T00:44:15.677Z,16.97
2019-06-01T00:46:46.418Z,18.30
2019-06-01T00:49:16.595Z,17.83
2019-06-01T00:51:47.015Z,22.87
2019-06-01T00:54:16.726Z,19.50
2019-06-01T00:56:47.413Z,15.63
2019-06-01T00:59:17.063Z,17.43
2019-06-01T01:01:47.792Z,17.43
2019-06-01T01:04:17.578Z,17.80
2019-06-01T01:06:49.087Z,17.17
2019-06-01T01:09:18.533Z,22.10
2019-06-01T01:11:49.166Z,17.57
2019-06-01T01:14:20.034Z,18.20
2019-06-01T01:16:49.706Z,22.73
2019-06-01T01:19:19.377Z,17.00
2019-06-01T01:21:50.521Z,58.83
2019-06-01T01:24:20.148Z,33.87
2019-06-01T01:26:50.498Z,42.53
2019-06-01T01:29:20.308Z,32.83
2019-06-01T01:31:51.059Z,50.20
2019-06-01T01:34:20.777Z,28.37
2019-06-01T01:36:52.561Z,20.30
2019-06-01T01:39:21.764Z,17.67
2019-06-01T01:41:52.170Z,18.60
2019-06-01T01:44:21.853Z,20.33
2019-06-01T01:46:52.663Z,23.53
2019-06-01T01:49:22.440Z,19.97
2019-06-01T01:51:52.822Z,21.73
2019-06-01T01:54:22.671Z,29.53
2019-06-01T01:56:52.281Z,24.63
2019-06-01T01:59:21.857Z,19.47
2019-06-01T02:01:52.413Z,31.90
2019-06-01T02:04:22.190Z,12.87
2019-06-01T02:06:51.909Z,42.77
2019-06-01T02:09:21.579Z,18.30
2019-06-01T02:11:51.435Z,15.17
2019-06-01T02:14:22.011Z,18.30
2019-06-01T02:16:51.891Z,19.37
2019-06-01T02:19:21.533Z,35.97
2019-06-01T02:21:52.257Z,16.93
2019-06-01T02:24:22.065Z,37.50
2019-06-01T02:26:52.916Z,27.77
2019-06-01T02:29:22.700Z,17.67
2019-06-01T02:31:52.310Z,14.33
2019-06-01T02:34:21.973Z,35.10
2019-06-01T02:36:51.520Z,63.93
2019-06-01T02:39:21.066Z,58.17
2019-06-01T02:41:50.658Z,31.00
2019-06-01T02:44:20.210Z,28.33
2019-06-01T02:46:49.761Z,25.87
2019-06-01T02:49:19.312Z,59.37
2019-06-01T02:51:48.856Z,101.90
2019-06-01T02:54:18.496Z,90.47
2019-06-01T02:56:48.074Z,112.77
2019-06-01T02:59:17.659Z,176.40
2019-06-01T03:01:56.773Z,97.10
2019-06-01T03:04:19.623Z,115.77
2019-06-01T03:06:52.660Z,73.60
2019-06-01T03:09:23.275Z,46.47
2019-06-01T03:11:54.869Z,53.00
2019-06-01T03:14:27.550Z,58.93
2019-06-01T03:16:59.884Z,42.77
2019-06-01T03:19:31.176Z,46.40
2019-06-01T03:22:04.868Z,38.10
2019-06-01T03:24:37.267Z,51.40
2019-06-01T03:27:08.585Z,31.80
2019-06-01T03:29:41.868Z,23.73
2019-06-01T03:32:33.203Z,25.30
2019-06-01T03:34:42.777Z,32.97
2019-06-01T03:37:13.361Z,19.40
2019-06-01T03:39:43.164Z,37.20
2019-06-01T03:42:12.810Z,40.87
2019-06-01T03:44:42.467Z,18.03
2019-06-01T03:47:12.064Z,21.33
2019-06-01T03:49:41.657Z,36.80
2019-06-01T03:52:11.299Z,23.97
2019-06-01T03:54:40.832Z,13.23
2019-06-01T03:57:11.244Z,24.20
2019-06-01T03:59:40.947Z,25.87
2019-06-01T04:02:11.178Z,19.10
2019-06-01T04:04:40.892Z,21.07
2019-06-01T04:07:10.749Z,19.80
2019-06-01T04:09:40.497Z,18.00
2019-06-01T04:12:10.100Z,20.53
2019-06-01T04:14:39.669Z,20.20
2019-06-01T04:17:10.192Z,21.47
2019-06-01T04:19:40.939Z,22.67
2019-06-01T04:22:13.171Z,21.07
2019-06-01T04:24:42.751Z,19.10
2019-06-01T04:27:12.503Z,22.63
2019-06-01T04:29:42.056Z,24.73
2019-06-01T04:32:12.736Z,21.27
2019-06-01T04:34:42.510Z,24.50
2019-06-01T04:37:13.263Z,23.00
2019-06-01T04:39:42.947Z,22.03
2019-06-01T04:42:13.818Z,22.77
2019-06-01T04:44:43.617Z,22.53
2019-06-01T04:47:14.483Z,21.13
2019-06-01T04:49:44.169Z,22.07
2019-06-01T04:52:15.138Z,23.93
2019-06-01T04:54:44.858Z,20.47
2019-06-01T04:57:15.126Z,21.20
2019-06-01T04:59:44.948Z,24.47
2019-06-01T05:02:15.258Z,21.43
2019-06-01T05:04:45.964Z,25.63
2019-06-01T05:07:15.679Z,21.73
2019-06-01T05:09:45.422Z,23.40
2019-06-01T05:12:15.581Z,28.10
2019-06-01T05:14:45.285Z,23.53
2019-06-01T05:17:15.400Z,26.30
2019-06-01T05:19:46.313Z,23.83
2019-06-01T05:22:16.722Z,22.40
2019-06-01T05:24:46.661Z,26.60
2019-06-01T05:27:17.338Z,26.97
2019-06-01T05:29:47.170Z,25.87
2019-06-01T05:32:16.810Z,28.40
2019-06-01T05:34:46.405Z,22.63
2019-06-01T05:37:16.678Z,23.97
2019-06-01T05:39:46.482Z,24.17
2019-06-01T05:42:16.908Z,21.67
2019-06-01T05:44:46.633Z,26.80
2019-06-01T05:47:16.283Z,22.33
2019-06-01T05:49:45.926Z,24.77
2019-06-01T05:52:16.604Z,24.70
2019-06-01T05:54:46.319Z,27.47
2019-06-01T05:57:16.806Z,27.23
2019-06-01T05:59:46.550Z,24.30
2019-06-01T06:02:16.078Z,23.33
2019-06-01T06:04:46.729Z,24.50
2019-06-01T06:07:16.871Z,26.77
2019-06-01T06:09:46.532Z,26.13
2019-06-01T06:12:17.215Z,22.43
2019-06-01T06:14:46.969Z,23.30
2019-06-01T06:17:18.164Z,21.97
2019-06-01T06:19:47.840Z,24.37
2019-06-01T06:22:18.246Z,27.00
2019-06-01T06:24:48.001Z,25.13
2019-06-01T06:27:18.520Z,22.67
2019-06-01T06:29:48.339Z,21.77
2019-06-01T06:32:19.180Z,21.23
2019-06-01T06:34:48.919Z,24.10
2019-06-01T06:37:19.677Z,19.87
2019-06-01T06:39:49.488Z,20.87
2019-06-01T06:42:20.244Z,20.93
2019-06-01T06:44:50.035Z,23.70
2019-06-01T06:47:20.833Z,21.10
2019-06-01T06:49:50.604Z,21.93
2019-06-01T06:52:21.459Z,24.97
2019-06-01T06:54:51.239Z,24.27
2019-06-01T06:57:22.038Z,20.43
2019-06-01T06:59:51.857Z,22.17
2019-06-01T07:02:21.511Z,21.00
2019-06-01T07:04:51.111Z,19.20
2019-06-01T07:07:21.705Z,22.87
2019-06-01T07:09:51.572Z,18.87
2019-06-01T07:12:21.288Z,20.53
2019-06-01T07:14:50.858Z,17.80
2019-06-01T07:17:21.420Z,16.50
2019-06-01T07:19:51.283Z,14.87
2019-06-01T07:22:21.676Z,21.53
2019-06-01T07:25:03.130Z,19.10
2019-06-01T07:27:32.794Z,15.17
2019-06-01T07:30:02.453Z,17.50
2019-06-01T07:32:32.845Z,14.47
2019-06-01T07:35:02.752Z,16.27
2019-06-01T07:37:32.790Z,18.30
2019-06-01T07:40:03.384Z,19.77
2019-06-01T07:42:33.218Z,15.30
2019-06-01T07:45:02.931Z,16.77
2019-06-01T07:47:34.017Z,14.77
2019-06-01T07:50:03.985Z,13.70
2019-06-01T07:52:33.638Z,16.20
2019-06-01T07:55:03.329Z,12.53
2019-06-01T07:57:32.872Z,14.10
2019-06-01T08:00:02.566Z,10.43
2019-06-01T08:02:33.119Z,10.33
2019-06-01T08:05:03.062Z,8.60
2019-06-01T08:07:32.834Z,11.50
2019-06-01T08:10:02.475Z,9.97
2019-06-01T08:12:33.024Z,7.77
2019-06-01T08:15:03.899Z,12.00
2019-06-01T08:17:33.533Z,7.67
2019-06-01T08:20:03.127Z,8.60
2019-06-01T08:22:32.760Z,8.33
2019-06-01T08:25:02.326Z,8.53
2019-06-01T08:27:32.661Z,6.23
2019-06-01T08:30:02.493Z,9.63
2019-06-01T08:32:32.889Z,10.87
2019-06-01T08:35:08.631Z,5.27
2019-06-01T08:37:34.159Z,9.20
2019-06-01T08:40:04.184Z,9.03
2019-06-01T08:42:33.819Z,7.53
2019-06-01T08:45:03.760Z,8.37
2019-06-01T08:47:34.529Z,9.30
2019-06-01T08:50:05.165Z,7.27
2019-06-01T08:52:34.857Z,7.97
2019-06-01T08:55:04.758Z,5.93
2019-06-01T08:57:34.631Z,8.90
2019-06-01T09:00:04.914Z,7.17
2019-06-01T09:02:34.936Z,8.60
2019-06-01T09:05:06.086Z,7.37
2019-06-01T09:07:35.703Z,9.53
2019-06-01T09:10:07.320Z,5.93
2019-06-01T09:12:36.998Z,8.70
2019-06-01T09:15:07.179Z,5.07
2019-06-01T09:17:36.897Z,7.03
2019-06-01T09:20:06.652Z,6.23
2019-06-01T09:22:36.260Z,6.97
2019-06-01T09:25:06.192Z,6.83
2019-06-01T09:27:36.222Z,8.07
2019-06-01T09:30:06.997Z,6.07
2019-06-01T09:32:36.668Z,6.30
2019-06-01T09:35:06.780Z,6.10
2019-06-01T09:37:36.846Z,7.70
2019-06-01T09:40:07.659Z,5.73
2019-06-01T09:42:37.647Z,13.30
2019-06-01T09:45:08.043Z,5.00
2019-06-01T09:47:37.920Z,10.97
2019-06-01T09:50:09.644Z,8.23
2019-06-01T09:52:39.285Z,7.60
2019-06-01T09:55:10.059Z,7.40
2019-06-01T09:57:39.671Z,7.10
2019-06-01T10:00:10.000Z,5.87
2019-06-01T10:02:39.608Z,5.70
2019-06-01T10:05:09.790Z,8.13
2019-06-01T10:07:39.548Z,5.53
2019-06-01T10:10:09.862Z,5.57
2019-06-01T10:12:39.520Z,7.67
2019-06-01T10:15:10.261Z,6.73
2019-06-01T10:17:39.799Z,9.80
2019-06-01T10:20:09.718Z,9.67
2019-06-01T10:22:39.658Z,11.07
2019-06-01T10:25:09.542Z,6.90
2019-06-01T10:27:39.160Z,4.70
2019-06-01T10:30:09.359Z,8.30
2019-06-01T10:32:39.925Z,6.27
2019-06-01T10:35:09.913Z,5.60
2019-06-01T10:37:39.679Z,7.30
2019-06-01T10:40:09.997Z,6.97
2019-06-01T10:42:39.913Z,6.73
2019-06-01T10:45:10.730Z,6.40
2019-06-01T10:47:40.305Z,8.97
2019-06-01T10:50:10.112Z,7.00
2019-06-01T10:52:40.382Z,7.40
2019-06-01T10:55:11.510Z,7.03
2019-06-01T10:57:42.690Z,6.60
2019-06-01T11:00:12.748Z,7.77
2019-06-01T11:02:43.361Z,9.33
2019-06-01T11:05:13.695Z,8.40
2019-06-01T11:07:43.354Z,8.97
2019-06-01T11:10:15.066Z,8.43
2019-06-01T11:12:44.681Z,12.03
2019-06-01T11:15:15.781Z,7.07
2019-06-01T11:17:46.122Z,9.97
2019-06-01T11:20:19.201Z,5.77
2019-06-01T11:22:49.980Z,5.90
2019-06-01T11:25:19.565Z,9.53
2019-06-01T11:27:52.194Z,4.20
2019-06-01T11:30:21.856Z,9.13
2019-06-01T11:32:51.395Z,7.10
2019-06-01T11:35:20.960Z,5.87
2019-06-01T11:37:50.592Z,10.30
2019-06-01T11:40:22.909Z,6.87
2019-06-01T11:42:52.456Z,3.30
2019-06-01T11:45:22.178Z,3.00
2019-06-01T11:47:51.816Z,3.80
2019-06-01T11:50:21.501Z,4.33
2019-06-01T11:52:51.024Z,4.20
2019-06-01T11:55:20.622Z,5.67
2019-06-01T11:57:50.184Z,5.13
2019-06-01T12:00:20.055Z,3.60
2019-06-01T12:02:49.609Z,3.67
2019-06-01T12:05:20.655Z,4.30
2019-06-01T12:07:50.304Z,6.83
2019-06-01T12:10:20.091Z,2.90
2019-06-01T12:12:49.745Z,7.50
2019-06-01T12:15:19.489Z,8.10
2019-06-01T12:17:49.626Z,4.67
2019-06-01T12:20:19.932Z,5.23
2019-06-01T12:22:49.475Z,5.53
2019-06-01T12:25:19.125Z,4.03
2019-06-01T12:27:48.814Z,5.17
2019-06-01T12:30:18.447Z,3.87
2019-06-01T12:32:48.883Z,2.80
2019-06-01T12:35:18.798Z,3.07
2019-06-01T12:38:04.150Z,3.17
2019-06-01T12:40:20.862Z,4.12
2019-06-01T12:42:51.851Z,3.60
2019-06-01T12:45:23.370Z,4.40
2019-06-01T12:47:57.757Z,3.80
2019-06-01T12:50:24.472Z,3.93
2019-06-01T12:52:54.108Z,5.53
2019-06-01T12:55:23.713Z,4.10
2019-06-01T12:57:53.243Z,5.87
2019-06-01T13:00:23.131Z,2.67
2019-06-01T13:03:03.514Z,2.60
2019-06-01T13:05:24.072Z,3.13
2019-06-01T13:08:01.783Z,3.30
2019-06-01T13:10:25.001Z,4.80
2019-06-01T13:12:54.830Z,5.87
2019-06-01T13:16:19.926Z,4.63
2019-06-01T13:18:54.213Z,3.30
2019-06-01T13:21:43.324Z,2.23
2019-06-01T13:24:28.398Z,2.13
2019-06-01T13:27:08.973Z,3.17
2019-06-01T13:29:50.776Z,2.73
2019-06-01T13:32:20.417Z,2.80
2019-06-01T13:34:51.117Z,4.63
2019-06-01T13:37:21.022Z,2.67
2019-06-01T13:39:55.825Z,2.07
2019-06-01T13:42:21.911Z,2.80
2019-06-01T13:44:51.651Z,4.67
2019-06-01T13:47:21.320Z,2.93
2019-06-01T13:49:51.902Z,3.70
2019-06-01T13:52:21.613Z,2.77
2019-06-01T13:54:52.448Z,3.13
2019-06-01T13:57:22.245Z,4.43
2019-06-01T13:59:52.963Z,3.80
2019-06-01T14:02:22.591Z,2.67
2019-06-01T14:04:52.251Z,3.77
2019-06-01T14:07:21.861Z,2.47
2019-06-01T14:09:52.152Z,3.35
2019-06-01T14:12:22.858Z,2.70
2019-06-01T14:14:53.562Z,1.60
2019-06-01T14:17:23.189Z,4.93
2019-06-01T14:19:53.836Z,2.10
2019-06-01T14:22:23.569Z,2.17
2019-06-01T14:25:08.157Z,2.22
2019-06-01T14:27:24.417Z,3.00
2019-06-01T14:29:54.482Z,1.32
2019-06-01T14:32:24.192Z,2.37
2019-06-01T14:34:54.906Z,2.62
2019-06-01T14:37:24.620Z,3.30
2019-06-01T14:39:54.974Z,1.40
2019-06-01T14:42:24.665Z,3.05
2019-06-01T14:44:54.215Z,4.93
2019-06-01T14:47:25.067Z,3.22
2019-06-01T14:49:55.694Z,1.93
2019-06-01T14:52:25.562Z,1.25
2019-06-01T14:54:55.919Z,3.58
2019-06-01T14:57:25.543Z,3.45
2019-06-01T14:59:56.106Z,2.87
2019-06-01T15:02:25.770Z,1.72
2019-06-01T15:04:56.403Z,1.50
2019-06-01T15:07:30.462Z,1.77
2019-06-01T15:10:01.753Z,1.67
2019-06-01T15:12:32.177Z,3.17
2019-06-01T15:15:02.882Z,1.98
2019-06-01T15:17:32.908Z,4.73
2019-06-01T15:20:02.724Z,1.47
2019-06-01T15:22:32.297Z,1.22
2019-06-01T15:25:03.621Z,2.02
2019-06-01T15:27:33.093Z,1.57
2019-06-01T15:30:04.049Z,2.35
2019-06-01T15:32:33.624Z,4.30
2019-06-01T15:35:03.444Z,1.65
2019-06-01T15:37:33.138Z,5.65
2019-06-01T15:40:03.056Z,2.25
2019-06-01T15:42:32.843Z,1.52
2019-06-01T15:45:02.666Z,3.52
2019-06-01T15:47:32.403Z,2.30
2019-06-01T15:50:02.645Z,1.72
2019-06-01T15:52:32.604Z,1.87
2019-06-01T15:55:02.891Z,1.40
2019-06-01T15:57:32.544Z,1.30
2019-06-01T16:00:03.079Z,1.75
2019-06-01T16:02:33.097Z,4.22
2019-06-01T16:05:03.349Z,2.90
2019-06-01T16:07:33.028Z,1.37
2019-06-01T16:10:07.609Z,3.70
2019-06-01T16:15:16.891Z,3.25
2019-06-01T16:17:46.420Z,2.42
2019-06-01T16:20:17.979Z,3.02
2019-06-01T16:22:47.542Z,2.42
2019-06-01T16:25:17.191Z,2.62
2019-06-01T16:27:46.754Z,2.55
2019-06-01T16:30:16.586Z,2.53
2019-06-01T16:32:46.157Z,2.75
2019-06-01T16:35:16.014Z,2.12
2019-06-01T16:37:45.592Z,3.27
2019-06-01T16:40:16.009Z,2.13
2019-06-01T16:42:45.604Z,2.55
2019-06-01T16:45:15.988Z,4.17
2019-06-01T16:47:46.559Z,1.85
2019-06-01T16:50:16.256Z,2.35
2019-06-01T16:52:45.850Z,2.63
2019-06-01T16:55:15.940Z,1.80
2019-06-01T16:57:46.487Z,2.60
2019-06-01T17:00:17.889Z,4.70
2019-06-01T17:02:47.532Z,4.60
2019-06-01T17:05:17.327Z,1.97
2019-06-01T17:07:46.890Z,2.80
2019-06-01T17:10:25.762Z,2.50
2019-06-01T17:12:48.431Z,5.93
2019-06-01T17:15:18.344Z,5.30
2019-06-01T17:17:47.976Z,5.10
2019-06-01T17:20:47.035Z,2.77
2019-06-01T17:23:27.325Z,3.17
2019-06-01T17:25:48.232Z,6.70
2019-06-01T17:28:17.880Z,5.00
2019-06-01T17:30:47.427Z,3.23
2019-06-01T17:33:17.117Z,4.30
2019-06-01T17:35:46.697Z,2.97
2019-06-01T17:38:16.342Z,3.70
2019-06-01T17:40:45.997Z,5.57
2019-06-01T17:43:15.676Z,4.17
2019-06-01T17:45:45.321Z,3.60
2019-06-01T17:48:25.935Z,5.03
2019-06-01T17:50:46.149Z,6.43
2019-06-01T17:53:15.710Z,3.20
2019-06-01T17:55:45.469Z,3.43
2019-06-01T17:58:15.361Z,4.50
2019-06-01T18:00:45.065Z,2.93
2019-06-01T18:03:14.730Z,4.60
2019-06-01T18:05:44.708Z,3.60
2019-06-01T18:08:14.721Z,5.27
2019-06-01T18:10:54.023Z,4.30
2019-06-01T18:13:15.960Z,6.80
2019-06-01T18:15:45.745Z,3.37
2019-06-01T18:18:15.539Z,4.53
2019-06-01T18:20:45.458Z,5.60
2019-06-01T18:23:15.244Z,8.73
2019-06-01T18:25:44.958Z,5.30
2019-06-01T18:28:19.231Z,7.70
2019-06-01T18:30:46.434Z,5.37
2019-06-01T18:33:16.399Z,4.53
2019-06-01T18:35:46.165Z,4.30
2019-06-01T18:38:16.090Z,7.90
2019-06-01T18:40:45.934Z,5.20
2019-06-01T18:43:18.543Z,3.90
2019-06-01T18:45:48.599Z,5.87
2019-06-01T18:48:19.988Z,4.70
2019-06-01T18:50:49.948Z,4.40
2019-06-01T18:53:19.772Z,3.83
2019-06-01T18:55:49.614Z,4.00
2019-06-01T18:58:19.459Z,4.50
2019-06-01T19:00:49.222Z,4.77
2019-06-01T19:03:19.049Z,3.60
2019-06-01T19:05:48.810Z,6.77
2019-06-01T19:08:18.554Z,5.43
2019-06-01T19:10:49.074Z,7.30
2019-06-01T19:13:19.759Z,6.40
2019-06-01T19:15:51.214Z,12.93
2019-06-01T19:18:20.954Z,4.60
2019-06-01T19:20:50.738Z,5.63
2019-06-01T19:23:22.651Z,5.70
2019-06-01T19:25:52.078Z,10.60
2019-06-01T19:28:21.936Z,4.67
2019-06-01T19:30:51.703Z,5.57
2019-06-01T19:33:21.684Z,5.40
2019-06-01T19:35:53.155Z,8.03
2019-06-01T19:38:23.346Z,6.63
2019-06-01T19:40:53.097Z,5.37
2019-06-01T19:43:22.994Z,8.50
2019-06-01T19:45:52.910Z,4.40
2019-06-01T19:48:22.683Z,6.73
2019-06-01T19:50:52.478Z,9.50
2019-06-01T19:53:22.247Z,6.47
2019-06-01T19:55:51.986Z,6.93
2019-06-01T19:58:22.463Z,5.30
2019-06-01T20:00:52.389Z,5.80
2019-06-01T20:03:23.762Z,7.50
2019-06-01T20:05:54.859Z,4.77
2019-06-01T20:08:27.246Z,6.83
2019-06-01T20:10:57.029Z,8.37
2019-06-01T20:13:26.849Z,7.70
2019-06-01T20:15:56.612Z,5.53
2019-06-01T20:18:26.420Z,5.87
2019-06-01T20:20:56.239Z,7.07
2019-06-01T20:23:26.038Z,7.50
2019-06-01T20:25:55.799Z,7.07
2019-06-01T20:28:26.849Z,5.80
2019-06-01T20:30:56.535Z,7.73
2019-06-01T20:33:26.302Z,6.93
2019-06-01T20:35:56.086Z,11.90
2019-06-01T20:38:25.873Z,7.20
2019-06-01T20:40:55.718Z,7.97
2019-06-01T20:43:25.597Z,11.33
2019-06-01T20:45:56.877Z,13.43
2019-06-01T20:48:26.942Z,10.53
2019-06-01T20:50:56.725Z,10.13
2019-06-01T20:53:26.440Z,10.50
2019-06-01T20:55:56.316Z,9.83
2019-06-01T20:58:26.129Z,11.97
2019-06-01T21:00:55.927Z,11.83
2019-06-01T21:03:25.681Z,9.57
2019-06-01T21:05:55.519Z,13.43
2019-06-01T21:08:25.424Z,16.43
2019-06-01T21:10:56.203Z,14.70
2019-06-01T21:13:25.918Z,13.60
2019-06-01T21:15:55.697Z,11.53
2019-06-01T21:18:25.564Z,12.07
2019-06-01T21:20:55.304Z,11.47
2019-06-01T21:23:25.441Z,12.03
2019-06-01T21:25:56.266Z,12.07
2019-06-01T21:28:26.118Z,10.80
2019-06-01T21:30:56.170Z,10.70
2019-06-01T21:33:28.489Z,10.40
2019-06-01T21:35:57.350Z,8.90
2019-06-01T21:38:27.122Z,10.53
2019-06-01T21:40:56.868Z,9.73
2019-06-01T21:43:34.904Z,10.00
2019-06-01T21:45:58.100Z,9.57
2019-06-01T21:48:27.903Z,9.93
2019-06-01T21:50:57.747Z,9.03
2019-06-01T21:53:28.473Z,8.47
2019-06-01T21:55:58.240Z,8.30
2019-06-01T21:58:27.969Z,7.27
2019-06-01T22:00:57.783Z,10.33
2019-06-01T22:03:28.922Z,9.03
2019-06-01T22:05:58.710Z,12.60
2019-06-01T22:08:28.484Z,11.43
2019-06-01T22:10:58.246Z,9.47
2019-06-01T22:13:28.925Z,8.27
2019-06-01T22:15:59.765Z,9.87
2019-06-01T22:18:29.595Z,11.70
2019-06-01T22:21:00.357Z,6.97
2019-06-01T22:23:30.216Z,10.70
2019-06-01T22:26:00.006Z,10.40
2019-06-01T22:28:29.757Z,11.00
2019-06-01T22:30:59.499Z,10.37
2019-06-01T22:33:29.246Z,12.20
2019-06-01T22:35:58.955Z,13.10
2019-06-01T22:38:28.782Z,8.97
2019-06-01T22:40:58.579Z,9.57
2019-06-01T22:43:43.406Z,11.30
2019-06-01T22:45:59.876Z,13.80
2019-06-01T22:48:29.745Z,12.83
2019-06-01T22:51:00.595Z,10.07
2019-06-01T22:53:30.436Z,12.90
2019-06-01T22:56:00.238Z,11.67
2019-06-01T22:58:29.991Z,10.33
2019-06-01T23:00:59.681Z,9.70
2019-06-01T23:03:30.225Z,12.20
2019-06-01T23:06:01.174Z,11.50
2019-06-01T23:08:31.920Z,12.40
2019-06-01T23:11:01.881Z,16.43
2019-06-01T23:13:32.429Z,12.73
2019-06-01T23:16:03.462Z,12.57
2019-06-01T23:18:33.248Z,13.33
2019-06-01T23:21:03.092Z,11.97
2019-06-01T23:23:32.934Z,11.57
2019-06-01T23:26:02.691Z,13.93
2019-06-01T23:28:32.592Z,15.13
2019-06-01T23:31:02.361Z,12.60
2019-06-01T23:33:33.058Z,11.87
2019-06-01T23:36:02.989Z,14.03
2019-06-01T23:38:32.922Z,15.73
2019-06-01T23:41:02.704Z,12.23
2019-06-01T23:43:33.456Z,13.53
2019-06-01T23:46:03.161Z,13.63
2019-06-01T23:48:34.111Z,16.90
2019-06-01T23:51:05.310Z,15.57
2019-06-01T23:53:35.049Z,16.07
2019-06-01T23:56:05.858Z,15.60
2019-06-01T23:58:35.620Z,12.33
